Wetterdaten: Woche 18.11.19 - 24.11.19 (KW47)
Datum Zeit Temp. Aussen Temp. o. S. Temp +5cm Feuchte Auss Luftdruck Regen Sonnenschein Regendauer Solar Windben Empfang
18.11.2019 00:00 3,8 C 2,8 C 2,8 C 99 % 1006,9 hPa 0,2 l/m 0,00 h 0,60 h 0 W/m 11,6 km/h (2 Bft) 98,51 %
18.11.2019 01:00 3,8 C 3,2 C 2,8 C 99 % 1006,6 hPa 0,0 l/m 0,00 h 0,03 h 0 W/m 9,7 km/h (2 Bft) 97,43 %
18.11.2019 02:00 3,8 C 2,9 C 2,8 C 99 % 1006,6 hPa 0,0 l/m 0,00 h 0,23 h 0 W/m 6,8 km/h (2 Bft) 95,95 %
18.11.2019 03:00 3,6 C 2,8 C 2,6 C 99 % 1006,2 hPa 0,2 l/m 0,00 h 0,40 h 0 W/m 9,8 km/h (2 Bft) 95,45 %
18.11.2019 04:00 3,6 C 2,8 C 2,8 C 99 % 1006,2 hPa 0,0 l/m 0,00 h 0,00 h 0 W/m 9,8 km/h (2 Bft) 95,57 %
18.11.2019 05:00 3,7 C 3,0 C 2,8 C 100 % 1006,1 hPa 0,0 l/m 0,00 h 0,00 h 0 W/m 8,1 km/h (2 Bft) 95,64 %
18.11.2019 06:00 4,0 C 3,3 C 2,9 C 100 % 1006,4 hPa 0,2 l/m 0,00 h 0,20 h 0 W/m 5,1 km/h (1 Bft) 95,95 %
18.11.2019 07:00 4,2 C 3,4 C 3,3 C 100 % 1006,7 hPa 0,0 l/m 0,00 h 0,03 h 0 W/m 4,6 km/h (1 Bft) 95,82 %
18.11.2019 08:00 4,4 C 3,9 C 3,3 C 100 % 1007,0 hPa 0,2 l/m 0,00 h 0,40 h 10 W/m 4,8 km/h (1 Bft) 98,93 %
18.11.2019 09:00 4,7 C 4,2 C 3,8 C 100 % 1007,1 hPa 0,2 l/m 0,00 h 0,37 h 16 W/m 2,1 km/h (1 Bft) 96,94 %
18.11.2019 10:00 5,0 C 4,4 C 3,9 C 100 % 1007,3 hPa 0,6 l/m 0,00 h 1,00 h 17 W/m 0,2 km/h (0 Bft) 96,72 %
18.11.2019 11:00 5,3 C 4,8 C 4,3 C 100 % 1007,2 hPa 0,2 l/m 0,00 h 0,57 h 23 W/m 0,5 km/h (0 Bft) 97,94 %
18.11.2019 12:00 5,5 C 5,0 C 4,4 C 100 % 1007,0 hPa 0,6 l/m 0,00 h 0,70 h 24 W/m 1,2 km/h (1 Bft) 97,72 %
18.11.2019 13:00 5,8 C 5,3 C 4,8 C 100 % 1007,0 hPa 1,0 l/m 0,00 h 0,97 h 22 W/m 0,6 km/h (0 Bft) 95,51 %
18.11.2019 14:00 6,1 C 5,6 C 5,0 C 100 % 1006,9 hPa 1,6 l/m 0,00 h 1,00 h 19 W/m 2,8 km/h (1 Bft) 97,36 %
18.11.2019 15:00 6,2 C 5,6 C 5,0 C 100 % 1007,3 hPa 2,2 l/m 0,00 h 1,00 h 6 W/m 1,4 km/h (1 Bft) 99,07 %
18.11.2019 16:00 6,3 C 5,6 C 5,0 C 100 % 1007,4 hPa 2,4 l/m 0,00 h 1,00 h 4 W/m 1,8 km/h (1 Bft) 93,30 %
18.11.2019 17:00 6,2 C 5,6 C 5,0 C 100 % 1007,8 hPa 3,0 l/m 0,00 h 1,00 h 0 W/m 2,6 km/h (1 Bft) 98,43 %
18.11.2019 18:00 6,3 C 5,6 C 5,0 C 100 % 1007,9 hPa 2,6 l/m 0,00 h 1,00 h 0 W/m 5,3 km/h (1 Bft) 97,92 %
18.11.2019 19:00 6,3 C 5,6 C 5,0 C 100 % 1008,1 hPa 2,2 l/m 0,00 h 1,00 h 0 W/m 4,7 km/h (1 Bft) 93,74 %
18.11.2019 20:00 6,2 C 5,6 C 5,0 C 100 % 1008,5 hPa 1,6 l/m 0,00 h 1,00 h 0 W/m 7,2 km/h (2 Bft) 98,79 %
18.11.2019 21:00 6,2 C 5,6 C 5,0 C 100 % 1009,0 hPa 1,4 l/m 0,00 h 1,00 h 0 W/m 8,2 km/h (2 Bft) 98,08 %
18.11.2019 22:00 6,4 C 5,6 C 5,2 C 100 % 1009,7 hPa 1,0 l/m 0,00 h 1,00 h 0 W/m 10,2 km/h (2 Bft) 96,36 %
18.11.2019 23:00 6,4 C 5,6 C 5,0 C 100 % 1010,7 hPa 0,2 l/m 0,00 h 0,57 h 0 W/m 10,8 km/h (2 Bft) 98,14 %
19.11.2019 00:00 5,9 C 4,9 C 4,5 C 100 % 1011,5 hPa 0,0 l/m 0,00 h 0,00 h 0 W/m 11,0 km/h (2 Bft) 96,03 %
19.11.2019 01:00 5,0 C 4,0 C 3,5 C 100 % 1012,1 hPa 0,0 l/m 0,00 h 0,00 h 0 W/m 8,2 km/h (2 Bft) 98,33 %
19.11.2019 02:00 4,2 C 3,3 C 2,9 C 100 % 1012,7 hPa 0,0 l/m 0,00 h 0,00 h 0 W/m 7,0 km/h (2 Bft) 97,08 %
19.11.2019 03:00 3,8 C 3,1 C 2,8 C 100 % 1013,2 hPa 0,0 l/m 0,00 h 0,00 h 0 W/m 6,3 km/h (2 Bft) 96,51 %
19.11.2019 04:00 3,9 C 3,3 C 2,7 C 100 % 1013,7 hPa 0,0 l/m 0,00 h 0,00 h 0 W/m 6,3 km/h (2 Bft) 99,56 %
19.11.2019 05:00 3,6 C 3,0 C 2,2 C 100 % 1014,3 hPa 0,0 l/m 0,00 h 0,00 h 0 W/m 6,1 km/h (2 Bft) 96,73 %
19.11.2019 06:00 3,4 C 2,8 C 2,2 C 99 % 1014,8 hPa 0,0 l/m 0,00 h 0,00 h 0 W/m 6,0 km/h (2 Bft) 96,76 %
19.11.2019 07:00 3,5 C 3,0 C 2,2 C 99 % 1015,2 hPa 0,2 l/m 0,00 h 0,00 h 0 W/m 7,8 km/h (2 Bft) 98,93 %
19.11.2019 08:00 3,8 C 2,9 C 2,8 C 99 % 1015,8 hPa 0,6 l/m 0,00 h 0,97 h 9 W/m 6,2 km/h (2 Bft) 95,51 %
19.11.2019 09:00 4,0 C 3,3 C 2,8 C 99 % 1016,2 hPa 1,8 l/m 0,00 h 1,00 h 22 W/m 8,1 km/h (2 Bft) 97,27 %
19.11.2019 10:00 4,3 C 3,7 C 3,3 C 99 % 1016,7 hPa 0,2 l/m 0,00 h 0,47 h 53 W/m 7,3 km/h (2 Bft) 98,01 %
19.11.2019 11:00 4,7 C 4,4 C 3,9 C 99 % 1017,1 hPa 0,0 l/m 0,00 h 0,00 h 76 W/m 7,6 km/h (2 Bft) 95,27 %
19.11.2019 12:00 5,2 C 5,3 C 4,5 C 99 % 1017,4 hPa 0,0 l/m 0,00 h 0,03 h 118 W/m 6,0 km/h (2 Bft) 97,79 %
19.11.2019 13:00 5,9 C 6,5 C 5,3 C 99 % 1017,5 hPa 0,0 l/m 0,23 h 0,00 h 147 W/m 4,3 km/h (1 Bft) 98,00 %
19.11.2019 14:00 6,7 C 7,6 C 5,2 C 98 % 1017,6 hPa 0,0 l/m 0,60 h 0,00 h 155 W/m 3,6 km/h (1 Bft) 97,41 %
19.11.2019 15:00 6,4 C 5,6 C 4,4 C 96 % 1017,9 hPa 0,0 l/m 0,00 h 0,00 h 50 W/m 2,0 km/h (1 Bft) 96,17 %
19.11.2019 16:00 5,8 C 4,3 C 3,0 C 95 % 1018,2 hPa 0,0 l/m 0,00 h 0,00 h 13 W/m 0,7 km/h (0 Bft) 98,93 %
19.11.2019 17:00 4,2 C 2,3 C 1,6 C 94 % 1018,5 hPa 0,0 l/m 0,00 h 0,00 h 0 W/m 0,0 km/h (0 Bft) 96,87 %
19.11.2019 18:00 3,8 C 2,9 C 2,1 C 95 % 1018,9 hPa 0,0 l/m 0,00 h 0,03 h 0 W/m 0,0 km/h (0 Bft) 95,73 %
19.11.2019 19:00 3,4 C 1,8 C 1,0 C 95 % 1019,2 hPa 0,0 l/m 0,00 h 0,00 h 0 W/m 0,0 km/h (0 Bft) 96,67 %
19.11.2019 20:00 2,6 C 1,1 C 0,5 C 95 % 1019,5 hPa 0,0 l/m 0,00 h 0,00 h 0 W/m 0,0 km/h (0 Bft) 98,43 %
19.11.2019 21:00 2,4 C 1,8 C 1,3 C 96 % 1019,7 hPa 0,0 l/m 0,00 h 0,00 h 0 W/m 0,0 km/h (0 Bft) 95,52 %
19.11.2019 22:00 2,7 C 2,1 C 1,6 C 97 % 1020,0 hPa 0,0 l/m 0,00 h 0,00 h 0 W/m 0,3 km/h (0 Bft) 96,42 %
19.11.2019 23:00 2,7 C 1,0 C 0,3 C 97 % 1020,0 hPa 0,0 l/m 0,00 h 0,00 h 0 W/m 0,3 km/h (0 Bft) 92,24 %
20.11.2019 00:00 1,5 C -0,5 C -1,0 C 97 % 1020,1 hPa 0,0 l/m 0,00 h 0,00 h 0 W/m 0,0 km/h (0 Bft) 94,87 %
20.11.2019 01:00 0,9 C 0,0 C -0,6 C 97 % 1020,0 hPa 0,0 l/m 0,00 h 0,00 h 0 W/m 1,9 km/h (1 Bft) 95,59 %
20.11.2019 02:00 1,1 C -0,4 C -1,0 C 98 % 1020,0 hPa 0,0 l/m 0,00 h 0,00 h 0 W/m 0,6 km/h (0 Bft) 94,39 %
20.11.2019 03:00 0,6 C -0,2 C -0,6 C 98 % 1020,1 hPa 0,0 l/m 0,00 h 0,00 h 0 W/m 3,7 km/h (1 Bft) 96,95 %
20.11.2019 04:00 0,3 C -0,6 C -0,6 C 98 % 1020,0 hPa 0,0 l/m 0,00 h 0,00 h 0 W/m 4,0 km/h (1 Bft) 94,56 %
20.11.2019 05:00 0,2 C -0,5 C -0,7 C 98 % 1019,6 hPa 0,0 l/m 0,00 h 0,00 h 0 W/m 0,7 km/h (0 Bft) 97,60 %
20.11.2019 06:00 0,5 C -0,2 C -0,6 C 99 % 1019,5 hPa 0,0 l/m 0,00 h 0,00 h 0 W/m 0,3 km/h (0 Bft) 98,19 %
20.11.2019 07:00 0,1 C -1,3 C -1,5 C 99 % 1019,4 hPa 0,0 l/m 0,00 h 0,00 h 0 W/m 0,0 km/h (0 Bft) 94,33 %
20.11.2019 08:00 -0,4 C -1,1 C -1,6 C 99 % 1019,3 hPa 0,0 l/m 0,00 h 0,00 h 19 W/m 0,0 km/h (0 Bft) 95,84 %
20.11.2019 09:00 -0,1 C 1,0 C -0,9 C 99 % 1019,3 hPa 0,2 l/m 0,63 h 0,00 h 91 W/m 0,0 km/h (0 Bft) 95,16 %
20.11.2019 10:00 2,2 C 4,6 C 1,2 C 100 % 1019,2 hPa 0,0 l/m 0,97 h 0,00 h 180 W/m 7,5 km/h (2 Bft) 94,66 %
20.11.2019 11:00 3,8 C 7,6 C 2,7 C 100 % 1018,8 hPa 0,0 l/m 0,83 h 0,00 h 246 W/m 2,7 km/h (1 Bft) 97,72 %
20.11.2019 12:00 5,2 C 10,1 C 4,1 C 100 % 1018,3 hPa 0,0 l/m 0,87 h 0,00 h 290 W/m 4,3 km/h (1 Bft) 98,43 %
20.11.2019 13:00 6,4 C 11,0 C 4,8 C 97 % 1017,7 hPa 0,0 l/m 0,97 h 0,00 h 299 W/m 2,5 km/h (1 Bft) 96,70 %
20.11.2019 14:00 6,3 C 7,5 C 3,7 C 91 % 1017,2 hPa 0,0 l/m 0,73 h 0,00 h 167 W/m 3,3 km/h (1 Bft) 97,57 %
20.11.2019 15:00 4,7 C 3,6 C 2,6 C 92 % 1016,7 hPa 0,0 l/m 0,00 h 0,00 h 41 W/m 0,9 km/h (0 Bft) 98,22 %
20.11.2019 16:00 3,8 C 2,5 C 2,0 C 94 % 1016,3 hPa 0,0 l/m 0,00 h 0,00 h 15 W/m 0,4 km/h (0 Bft) 97,37 %
20.11.2019 17:00 2,9 C 1,0 C 0,6 C 94 % 1016,0 hPa 0,0 l/m 0,00 h 0,00 h 0 W/m 0,3 km/h (0 Bft) 94,85 %
20.11.2019 18:00 1,8 C -0,1 C -0,6 C 95 % 1015,7 hPa 0,0 l/m 0,00 h 0,00 h 0 W/m 0,1 km/h (0 Bft) 96,89 %
20.11.2019 19:00 1,2 C 0,3 C -0,0 C 96 % 1015,7 hPa 0,0 l/m 0,00 h 0,00 h 0 W/m 1,3 km/h (1 Bft) 94,84 %
20.11.2019 20:00 1,7 C 1,1 C 0,8 C 97 % 1015,5 hPa 0,0 l/m 0,00 h 0,00 h 0 W/m 1,2 km/h (1 Bft) 99,15 %
20.11.2019 21:00 1,8 C 0,5 C 0,1 C 97 % 1015,0 hPa 0,0 l/m 0,00 h 0,00 h 0 W/m 0,6 km/h (0 Bft) 96,23 %
20.11.2019 22:00 1,0 C -0,1 C -0,7 C 97 % 1014,6 hPa 0,0 l/m 0,00 h 0,00 h 0 W/m 0,6 km/h (0 Bft) 97,51 %
20.11.2019 23:00 0,4 C -1,2 C -1,8 C 97 % 1014,3 hPa 0,0 l/m 0,00 h 0,00 h 0 W/m 0,1 km/h (0 Bft) 97,52 %
21.11.2019 00:00 -0,3 C -1,7 C -2,1 C 97 % 1013,9 hPa 0,0 l/m 0,00 h 0,00 h 0 W/m 0,3 km/h (0 Bft) 93,41 %
21.11.2019 01:00 -0,5 C -1,7 C -2,1 C 98 % 1013,4 hPa 0,0 l/m 0,00 h 0,00 h 0 W/m 0,2 km/h (0 Bft) 95,58 %
21.11.2019 02:00 -0,9 C -2,2 C -2,2 C 98 % 1012,9 hPa 0,0 l/m 0,00 h 0,00 h 0 W/m 0,5 km/h (0 Bft) 97,83 %
21.11.2019 03:00 -1,0 C -1,8 C -1,9 C 98 % 1012,5 hPa 0,0 l/m 0,00 h 0,00 h 0 W/m 1,5 km/h (1 Bft) 95,96 %
21.11.2019 04:00 -0,7 C -1,4 C -1,7 C 98 % 1012,1 hPa 0,0 l/m 0,00 h 0,00 h 0 W/m 1,0 km/h (0 Bft) 97,09 %
21.11.2019 05:00 -0,6 C -1,1 C -1,7 C 98 % 1011,9 hPa 0,0 l/m 0,00 h 0,00 h 0 W/m 1,2 km/h (1 Bft) 97,34 %
21.11.2019 06:00 -0,6 C -1,2 C -1,7 C 98 % 1011,6 hPa 0,0 l/m 0,00 h 0,00 h 0 W/m 1,2 km/h (1 Bft) 97,87 %
21.11.2019 07:00 -0,7 C -1,9 C -1,9 C 99 % 1011,2 hPa 0,0 l/m 0,00 h 0,00 h 0 W/m 0,6 km/h (0 Bft) 96,51 %
21.11.2019 08:00 -1,2 C -2,1 C -2,3 C 99 % 1010,9 hPa 0,0 l/m 0,00 h 0,00 h 21 W/m 0,0 km/h (0 Bft) 96,71 %
21.11.2019 09:00 -1,1 C -1,2 C -1,6 C 99 % 1010,6 hPa 0,0 l/m 0,00 h 0,00 h 61 W/m 0,0 km/h (0 Bft) 98,94 %
21.11.2019 10:00 -0,0 C 1,2 C 0,2 C 99 % 1010,2 hPa 0,2 l/m 0,47 h 0,00 h 130 W/m 0,1 km/h (0 Bft) 96,08 %
21.11.2019 11:00 2,0 C 4,7 C 2,1 C 100 % 1009,7 hPa 0,0 l/m 1,00 h 0,00 h 231 W/m 4,6 km/h (1 Bft) 98,77 %
21.11.2019 12:00 3,3 C 5,3 C 3,5 C 100 % 1009,0 hPa 0,0 l/m 0,60 h 0,00 h 185 W/m 15,8 km/h (3 Bft) 96,86 %
21.11.2019 13:00 3,9 C 5,0 C 3,7 C 98 % 1008,4 hPa 0,0 l/m 0,43 h 0,00 h 147 W/m 13,1 km/h (3 Bft) 96,01 %
21.11.2019 14:00 5,0 C 7,3 C 4,3 C 94 % 1007,9 hPa 0,0 l/m 0,87 h 0,00 h 193 W/m 11,5 km/h (2 Bft) 96,41 %
21.11.2019 15:00 5,4 C 5,3 C 4,1 C 90 % 1007,7 hPa 0,0 l/m 0,30 h 0,00 h 58 W/m 8,5 km/h (2 Bft) 97,79 %
21.11.2019 16:00 5,3 C 4,4 C 3,5 C 90 % 1007,6 hPa 0,0 l/m 0,23 h 0,00 h 17 W/m 5,3 km/h (1 Bft) 97,50 %
21.11.2019 17:00 4,8 C 4,0 C 3,1 C 92 % 1007,5 hPa 0,0 l/m 0,00 h 0,00 h 0 W/m 12,3 km/h (3 Bft) 97,02 %
21.11.2019 18:00 4,6 C 4,1 C 3,4 C 93 % 1007,2 hPa 0,0 l/m 0,00 h 0,00 h 0 W/m 15,4 km/h (3 Bft) 97,65 %
21.11.2019 19:00 5,0 C 4,6 C 3,9 C 94 % 1007,0 hPa 0,0 l/m 0,00 h 0,03 h 0 W/m 18,8 km/h (3 Bft) 95,67 %
21.11.2019 20:00 5,2 C 4,4 C 3,9 C 94 % 1007,1 hPa 0,0 l/m 0,00 h 0,00 h 0 W/m 17,6 km/h (3 Bft) 97,16 %
21.11.2019 21:00 4,9 C 4,0 C 3,3 C 94 % 1007,1 hPa 0,0 l/m 0,00 h 0,00 h 0 W/m 16,0 km/h (3 Bft) 96,44 %
21.11.2019 22:00 4,6 C 3,9 C 3,3 C 95 % 1007,0 hPa 0,0 l/m 0,00 h 0,00 h 0 W/m 16,6 km/h (3 Bft) 94,25 %
21.11.2019 23:00 4,4 C 3,9 C 3,2 C 96 % 1006,8 hPa 0,0 l/m 0,00 h 0,00 h 0 W/m 17,4 km/h (3 Bft) 99,36 %
22.11.2019 00:00 4,5 C 3,9 C 3,3 C 96 % 1006,5 hPa 0,0 l/m 0,00 h 0,00 h 0 W/m 14,2 km/h (3 Bft) 95,78 %
22.11.2019 01:00 4,4 C 3,9 C 3,1 C 96 % 1006,4 hPa 0,0 l/m 0,00 h 0,00 h 0 W/m 19,7 km/h (3 Bft) 96,58 %
22.11.2019 02:00 4,4 C 3,9 C 3,2 C 95 % 1006,4 hPa 0,0 l/m 0,00 h 0,00 h 0 W/m 18,1 km/h (3 Bft) 99,43 %
22.11.2019 03:00 4,9 C 4,4 C 3,9 C 95 % 1006,3 hPa 0,0 l/m 0,00 h 0,00 h 0 W/m 20,8 km/h (4 Bft) 94,46 %
22.11.2019 04:00 5,2 C 4,6 C 3,9 C 94 % 1006,1 hPa 0,0 l/m 0,00 h 0,10 h 0 W/m 21,8 km/h (4 Bft) 97,02 %
22.11.2019 05:00 5,5 C 4,2 C 3,7 C 94 % 1006,2 hPa 0,4 l/m 0,00 h 0,83 h 0 W/m 20,2 km/h (4 Bft) 98,93 %
22.11.2019 06:00 5,4 C 4,2 C 3,7 C 96 % 1006,4 hPa 1,0 l/m 0,00 h 0,77 h 0 W/m 17,2 km/h (3 Bft) 96,37 %
22.11.2019 07:00 5,4 C 4,4 C 3,9 C 97 % 1006,4 hPa 0,0 l/m 0,00 h 0,03 h 0 W/m 18,3 km/h (3 Bft) 97,30 %
22.11.2019 08:00 5,4 C 4,5 C 4,0 C 97 % 1006,8 hPa 0,0 l/m 0,07 h 0,00 h 24 W/m 18,2 km/h (3 Bft) 97,50 %
22.11.2019 09:00 5,8 C 5,5 C 4,6 C 98 % 1007,1 hPa 0,0 l/m 0,10 h 0,00 h 65 W/m 17,1 km/h (3 Bft) 98,22 %
22.11.2019 10:00 6,4 C 7,1 C 5,2 C 97 % 1007,0 hPa 0,0 l/m 0,37 h 0,00 h 118 W/m 18,3 km/h (3 Bft) 96,69 %
22.11.2019 11:00 7,7 C 10,2 C 6,0 C 96 % 1006,5 hPa 0,0 l/m 1,00 h 0,00 h 235 W/m 21,4 km/h (4 Bft) 98,50 %
22.11.2019 12:00 8,9 C 11,4 C 7,2 C 91 % 1006,0 hPa 0,0 l/m 1,00 h 0,00 h 276 W/m 23,2 km/h (4 Bft) 97,65 %
22.11.2019 13:00 9,0 C 10,3 C 7,7 C 88 % 1005,7 hPa 0,0 l/m 1,00 h 0,00 h 221 W/m 26,1 km/h (4 Bft) 96,79 %
22.11.2019 14:00 8,8 C 9,2 C 7,3 C 88 % 1005,5 hPa 0,0 l/m 0,73 h 0,00 h 145 W/m 25,1 km/h (4 Bft) 98,51 %
22.11.2019 15:00 7,7 C 7,0 C 6,4 C 89 % 1005,4 hPa 0,0 l/m 0,13 h 0,00 h 59 W/m 25,4 km/h (4 Bft) 95,46 %
22.11.2019 16:00 7,0 C 6,1 C 5,5 C 90 % 1005,1 hPa 0,0 l/m 0,10 h 0,00 h 17 W/m 26,1 km/h (4 Bft) 97,29 %
22.11.2019 17:00 6,4 C 5,5 C 4,8 C 91 % 1004,9 hPa 0,0 l/m 0,00 h 0,00 h 0 W/m 25,3 km/h (4 Bft) 99,79 %
22.11.2019 18:00 5,8 C 4,8 C 4,2 C 92 % 1005,0 hPa 0,0 l/m 0,00 h 0,00 h 0 W/m 19,0 km/h (3 Bft) 94,62 %
22.11.2019 19:00 5,1 C 4,4 C 3,7 C 93 % 1004,6 hPa 0,0 l/m 0,00 h 0,00 h 0 W/m 24,1 km/h (4 Bft) 98,08 %
22.11.2019 20:00 4,7 C 4,0 C 3,3 C 94 % 1004,0 hPa 0,0 l/m 0,00 h 0,00 h 0 W/m 26,4 km/h (4 Bft) 98,79 %
22.11.2019 21:00 4,5 C 3,9 C 3,3 C 94 % 1003,6 hPa 0,0 l/m 0,00 h 0,00 h 0 W/m 22,5 km/h (4 Bft) 95,58 %
22.11.2019 22:00 4,4 C 3,7 C 2,9 C 94 % 1003,1 hPa 0,0 l/m 0,00 h 0,00 h 0 W/m 16,4 km/h (3 Bft) 97,65 %
22.11.2019 23:00 4,2 C 3,5 C 2,8 C 94 % 1002,4 hPa 0,0 l/m 0,00 h 0,00 h 0 W/m 11,1 km/h (2 Bft) 97,03 %
23.11.2019 00:00 4,3 C 3,9 C 3,2 C 94 % 1002,0 hPa 0,0 l/m 0,00 h 0,00 h 0 W/m 17,7 km/h (3 Bft) 99,08 %
23.11.2019 01:00 4,3 C 3,7 C 3,1 C 92 % 1001,7 hPa 0,0 l/m 0,00 h 0,00 h 0 W/m 18,1 km/h (3 Bft) 96,94 %
23.11.2019 02:00 4,3 C 3,9 C 3,3 C 93 % 1001,0 hPa 0,0 l/m 0,00 h 0,00 h 0 W/m 19,2 km/h (3 Bft) 97,65 %
23.11.2019 03:00 4,4 C 3,9 C 3,2 C 91 % 1000,5 hPa 0,0 l/m 0,00 h 0,00 h 0 W/m 15,2 km/h (3 Bft) 97,65 %
23.11.2019 04:00 4,2 C 3,4 C 2,8 C 92 % 1000,3 hPa 0,0 l/m 0,00 h 0,00 h 0 W/m 8,2 km/h (2 Bft) 97,51 %
23.11.2019 05:00 4,2 C 3,4 C 2,9 C 93 % 1000,0 hPa 0,0 l/m 0,00 h 0,00 h 0 W/m 3,6 km/h (1 Bft) 97,58 %
23.11.2019 06:00 4,2 C 3,4 C 2,8 C 93 % 999,4 hPa 0,0 l/m 0,00 h 0,00 h 0 W/m 3,7 km/h (1 Bft) 97,58 %
23.11.2019 07:00 3,7 C 2,4 C 2,2 C 93 % 999,4 hPa 0,0 l/m 0,00 h 0,00 h 0 W/m 1,0 km/h (0 Bft) 97,29 %
23.11.2019 08:00 3,3 C 2,9 C 2,4 C 94 % 999,4 hPa 0,0 l/m 0,00 h 0,00 h 20 W/m 0,1 km/h (0 Bft) 96,58 %
23.11.2019 09:00 3,6 C 4,0 C 3,0 C 95 % 999,3 hPa 0,0 l/m 0,23 h 0,00 h 71 W/m 0,5 km/h (0 Bft) 96,12 %
23.11.2019 10:00 4,7 C 6,3 C 4,8 C 96 % 999,4 hPa 0,0 l/m 0,33 h 0,00 h 117 W/m 0,5 km/h (0 Bft) 97,65 %
23.11.2019 11:00 5,9 C 7,5 C 6,2 C 95 % 999,3 hPa 0,0 l/m 0,33 h 0,00 h 155 W/m 2,0 km/h (1 Bft) 98,36 %
23.11.2019 12:00 7,7 C 11,1 C 7,8 C 92 % 998,6 hPa 0,0 l/m 0,80 h 0,00 h 232 W/m 3,5 km/h (1 Bft) 96,51 %
23.11.2019 13:00 8,7 C 8,8 C 7,6 C 88 % 998,3 hPa 0,0 l/m 0,00 h 0,00 h 111 W/m 1,8 km/h (1 Bft) 96,58 %
23.11.2019 14:00 8,6 C 8,2 C 6,9 C 88 % 997,9 hPa 0,0 l/m 0,00 h 0,00 h 59 W/m 0,6 km/h (0 Bft) 97,58 %
23.11.2019 15:00 8,0 C 7,0 C 5,7 C 88 % 997,7 hPa 0,0 l/m 0,00 h 0,00 h 28 W/m 1,1 km/h (0 Bft) 98,36 %
23.11.2019 16:00 7,4 C 6,3 C 4,9 C 90 % 998,1 hPa 0,0 l/m 0,00 h 0,00 h 9 W/m 0,5 km/h (0 Bft) 95,05 %
23.11.2019 17:00 6,9 C 5,9 C 4,7 C 91 % 998,9 hPa 0,0 l/m 0,00 h 0,00 h 0 W/m 1,0 km/h (0 Bft) 97,72 %
23.11.2019 18:00 6,8 C 6,1 C 5,0 C 93 % 999,3 hPa 0,0 l/m 0,00 h 0,00 h 0 W/m 1,5 km/h (1 Bft) 97,65 %
23.11.2019 19:00 6,6 C 5,4 C 4,4 C 93 % 999,9 hPa 0,0 l/m 0,00 h 0,00 h 0 W/m 1,1 km/h (0 Bft) 96,87 %
23.11.2019 20:00 5,8 C 4,3 C 3,5 C 93 % 1000,4 hPa 0,0 l/m 0,00 h 0,00 h 0 W/m 0,2 km/h (0 Bft) 95,42 %
23.11.2019 21:00 5,1 C 3,8 C 3,0 C 94 % 1000,7 hPa 0,0 l/m 0,00 h 0,00 h 0 W/m 0,6 km/h (0 Bft) 98,08 %
23.11.2019 22:00 4,5 C 3,3 C 2,5 C 95 % 1001,1 hPa 0,0 l/m 0,00 h 0,00 h 0 W/m 0,2 km/h (0 Bft) 97,51 %
23.11.2019 23:00 4,2 C 2,9 C 2,0 C 95 % 1001,5 hPa 0,0 l/m 0,00 h 0,00 h 0 W/m 0,0 km/h (0 Bft) 96,01 %
24.11.2019 00:00 3,5 C 2,0 C 1,2 C 95 % 1001,9 hPa 0,0 l/m 0,00 h 0,00 h 0 W/m 0,0 km/h (0 Bft) 98,93 %
24.11.2019 01:00 3,0 C 1,8 C 1,0 C 96 % 1002,2 hPa 0,0 l/m 0,00 h 0,00 h 0 W/m 0,0 km/h (0 Bft) 96,94 %
24.11.2019 02:00 2,6 C 1,3 C 0,5 C 96 % 1002,4 hPa 0,0 l/m 0,00 h 0,00 h 0 W/m 0,0 km/h (0 Bft) 97,51 %
24.11.2019 03:00 2,3 C 1,8 C 0,9 C 96 % 1002,8 hPa 0,0 l/m 0,00 h 0,00 h 0 W/m 1,4 km/h (1 Bft) 96,16 %
24.11.2019 04:00 3,5 C 3,2 C 2,1 C 98 % 1003,2 hPa 0,0 l/m 0,00 h 0,00 h 0 W/m 1,9 km/h (1 Bft) 96,94 %
24.11.2019 05:00 3,6 C 2,8 C 1,7 C 98 % 1003,7 hPa 0,0 l/m 0,00 h 0,00 h 0 W/m 0,2 km/h (0 Bft) 99,15 %
24.11.2019 06:00 3,4 C 2,9 C 1,5 C 98 % 1004,4 hPa 0,0 l/m 0,00 h 0,00 h 0 W/m 1,3 km/h (1 Bft) 93,81 %
24.11.2019 07:00 3,4 C 2,7 C 1,6 C 98 % 1005,2 hPa 0,0 l/m 0,00 h 0,00 h 0 W/m 0,6 km/h (0 Bft) 97,02 %
24.11.2019 08:00 3,1 C 2,5 C 1,6 C 98 % 1006,0 hPa 0,0 l/m 0,00 h 0,00 h 16 W/m 1,0 km/h (0 Bft) 97,70 %
24.11.2019 09:00 3,4 C 4,5 C 2,4 C 98 % 1006,5 hPa 0,0 l/m 0,33 h 0,00 h 71 W/m 3,0 km/h (1 Bft) 94,95 %
24.11.2019 10:00 5,1 C 7,4 C 4,7 C 99 % 1007,2 hPa 0,0 l/m 0,80 h 0,00 h 141 W/m 7,4 km/h (2 Bft) 98,01 %
24.11.2019 11:00 7,4 C 13,1 C 7,0 C 99 % 1007,8 hPa 0,0 l/m 1,00 h 0,00 h 293 W/m 2,0 km/h (1 Bft) 97,65 %
24.11.2019 12:00 10,2 C 15,6 C 8,6 C 86 % 1007,7 hPa 0,0 l/m 1,00 h 0,00 h 312 W/m 1,3 km/h (1 Bft) 98,79 %
24.11.2019 13:00 11,2 C 13,2 C 8,9 C 80 % 1007,7 hPa 0,0 l/m 0,63 h 0,00 h 204 W/m 1,7 km/h (1 Bft) 97,07 %
24.11.2019 14:00 11,0 C 11,3 C 9,1 C 81 % 1007,9 hPa 0,0 l/m 0,50 h 0,00 h 148 W/m 2,8 km/h (1 Bft) 99,08 %
24.11.2019 15:00 10,6 C 9,5 C 7,8 C 84 % 1008,0 hPa 0,0 l/m 0,00 h 0,00 h 38 W/m 0,7 km/h (0 Bft) 94,81 %
24.11.2019 16:00 9,6 C 8,1 C 6,5 C 88 % 1008,3 hPa 0,0 l/m 0,00 h 0,00 h 12 W/m 1,2 km/h (1 Bft) 98,72 %
24.11.2019 17:00 8,2 C 5,8 C 4,1 C 88 % 1008,6 hPa 0,0 l/m 0,00 h 0,00 h 0 W/m 0,0 km/h (0 Bft) 98,51 %
24.11.2019 18:00 6,5 C 4,5 C 3,2 C 91 % 1009,1 hPa 0,0 l/m 0,00 h 0,00 h 0 W/m 0,0 km/h (0 Bft) 97,08 %
24.11.2019 19:00 5,6 C 4,3 C 2,8 C 92 % 1009,5 hPa 0,0 l/m 0,00 h 0,00 h 0 W/m 0,0 km/h (0 Bft) 95,46 %
24.11.2019 20:00 5,3 C 4,4 C 3,3 C 93 % 1009,5 hPa 0,0 l/m 0,00 h 0,00 h 0 W/m 0,0 km/h (0 Bft) 95,81 %
24.11.2019 21:00 5,2 C 3,9 C 3,1 C 94 % 1009,7 hPa 0,0 l/m 0,00 h 0,00 h 0 W/m 0,0 km/h (0 Bft) 95,34 %
24.11.2019 22:00 4,8 C 3,3 C 2,8 C 94 % 1009,6 hPa 0,0 l/m 0,00 h 0,00 h 0 W/m 0,0 km/h (0 Bft) 98,66 %
24.11.2019 23:00 4,4 C 2,9 C 2,3 C 95 % 1009,9 hPa 0,0 l/m 0,00 h 0,00 h 0 W/m 0,0 km/h (0 Bft) 96,14 %
Min-Datum _ 21.11.19 21.11.19 21.11.19 24.11.19 23.11.19 - - - - 18.11.19 20.11.19
_ Min-Zeit 08:36 08:02 08:10 13:04 15:10 - - - - 01:06 00:02
Minimum _ -1,3 C -2,8 C -2,8 C 79 % 997,6 hPa - - - - 0,0 km/h (0 Bft) 10,53 %
Max-Datum _ 24.11.19 24.11.19 24.11.19 18.11.19 20.11.19 18.11.19 21.11.19 18.11.19 20.11.19 22.11.19 23.11.19
_ Max-Zeit 13:50 12:48 12:16 05:28 02:58 17:00 10:44 00:08 12:38 20:36 00:08
Maximum _ 11,4 C 17,2 C 11,1 C 100 % 1020,3 hPa 3,0 l/m 0,07 h 0,07 h 438 W/m 48,3 km/h
SO (6 Bft)
266,08 %
Durchschnitt _ 4,4 C 4,0 C 2,9 C 96 % 1009,1 hPa #26,2 l/m #20:12 h #19:22 h 101 W/m 6,4 km/h (2 Bft) 96,95 %
© 2019 W. Hausmann